Time;durP1;ratioP1;P1;durP2;ratioP2;P2;SDS_P1;SDS_P2;PMS_P1;PMS_P2;Temp;Humidity;BMP_temperature;BMP_pressure;BME280_temperature;BME280_humidity;BME280_pressure;Samples;Min_cycle;Max_cycle;Signal;HPM_P1;HPM_P2
2021/07/06 00:02:05;;;;;;;3.80;1.60;;;;;;;18.28;100.00;99998.78;5190654;28;20079;-78
2021/07/06 00:04:36;;;;;;;3.63;1.60;;;;;;;18.18;100.00;99995.16;5195539;28;20022;-78
2021/07/06 00:07:06;;;;;;;2.92;1.60;;;;;;;18.33;100.00;99989.56;5197041;28;20044;-78
2021/07/06 00:09:36;;;;;;;3.35;1.77;;;;;;;18.32;100.00;99992.34;5195999;28;20034;-76
2021/07/06 00:12:07;;;;;;;3.55;1.80;;;;;;;18.35;100.00;99984.16;5197402;28;20029;-76
2021/07/06 00:14:37;;;;;;;3.25;1.58;;;;;;;18.44;100.00;99980.78;5196373;28;20504;-79
2021/07/06 00:17:07;;;;;;;4.85;1.80;;;;;;;18.36;100.00;99972.63;5198411;28;20029;-78
2021/07/06 00:19:39;;;;;;;5.47;1.70;;;;;;;18.21;100.00;99966.63;5196309;28;20026;-76
2021/07/06 00:22:09;;;;;;;3.13;2.00;;;;;;;18.20;100.00;99959.66;5192747;28;20030;-78
2021/07/06 00:24:40;;;;;;;4.20;1.55;;;;;;;18.24;100.00;99960.28;5196436;28;20072;-78
2021/07/06 00:27:10;;;;;;;4.95;1.55;;;;;;;18.32;100.00;99961.41;5190027;28;20021;-78
2021/07/06 00:29:41;;;;;;;5.93;1.80;;;;;;;18.29;100.00;99966.94;5190009;28;20084;-77
2021/07/06 00:32:12;;;;;;;8.80;1.70;;;;;;;18.24;100.00;99960.28;5206592;28;20112;-79
2021/07/06 00:34:42;;;;;;;3.80;1.63;;;;;;;18.41;100.00;99966.00;5197789;28;21361;-78
2021/07/06 00:37:13;;;;;;;5.18;1.80;;;;;;;18.33;100.00;99975.50;5196184;28;20042;-76
2021/07/06 00:39:43;;;;;;;4.45;1.70;;;;;;;18.19;100.00;99967.72;5197333;28;20029;-79
2021/07/06 00:42:13;;;;;;;5.13;1.70;;;;;;;18.31;100.00;99972.13;5199367;28;20535;-79
2021/07/06 00:44:45;;;;;;;5.45;1.80;;;;;;;18.23;100.00;99969.19;5200301;28;20056;-77
2021/07/06 00:47:29;;;;;;;7.97;1.70;;;;;;;18.17;100.00;99967.00;5194001;28;20026;-78
2021/07/06 00:50:01;;;;;;;4.35;1.60;;;;;;;18.36;100.00;99969.97;5194852;28;20363;-79
2021/07/06 00:52:31;;;;;;;4.45;1.65;;;;;;;18.45;100.00;99969.25;5190966;28;20033;-79
2021/07/06 00:55:04;;;;;;;3.92;1.42;;;;;;;18.31;100.00;99969.47;5195900;28;20367;-78
2021/07/06 00:57:36;;;;;;;8.35;1.70;;;;;;;18.28;100.00;99969.69;5197171;28;20028;-77
2021/07/06 01:00:13;;;;;;;9.90;2.00;;;;;;;18.17;100.00;99969.66;5194343;28;20503;-79
2021/07/06 01:02:44;;;;;;;4.75;1.80;;;;;;;18.34;100.00;99967.41;5194531;28;20033;-79
2021/07/06 01:05:16;;;;;;;3.70;1.55;;;;;;;18.44;100.00;99979.00;5197628;28;20060;-78
2021/07/06 01:07:47;;;;;;;2.80;1.70;;;;;;;18.33;100.00;99975.50;5200219;28;20025;-76
2021/07/06 01:10:18;;;;;;;5.50;1.58;;;;;;;18.28;100.00;99967.03;5197830;28;20418;-78
2021/07/06 01:12:52;;;;;;;6.38;1.60;;;;;;;18.33;100.00;99964.91;5198735;28;20025;-79
2021/07/06 01:15:25;;;;;;;6.03;1.60;;;;;;;18.32;100.00;99963.22;5193749;28;20029;-77
2021/07/06 01:18:09;;;;;;;7.70;1.60;;;;;;;18.38;100.00;99968.88;5188727;28;20025;-77
2021/07/06 01:20:46;;;;;;;5.05;1.67;;;;;;;18.48;100.00;99963.72;5191642;28;20022;-77
2021/07/06 01:23:20;;;;;;;4.60;1.63;;;;;;;18.61;100.00;99962.66;5187754;28;20022;-77
2021/07/06 01:25:53;;;;;;;4.47;1.67;;;;;;;18.50;100.00;99972.41;5196046;28;20260;-77
2021/07/06 01:28:24;;;;;;;4.07;1.60;;;;;;;18.41;100.00;99967.78;5187798;28;20017;-78
2021/07/06 01:30:54;;;;;;;6.20;1.70;;;;;;;18.40;100.00;99976.69;5191289;28;20024;-77
2021/07/06 01:33:32;;;;;;;4.47;1.70;;;;;;;18.38;100.00;99973.31;5190156;28;20022;-77
2021/07/06 01:36:07;;;;;;;7.72;1.75;;;;;;;18.40;100.00;99974.91;5193195;28;20036;-77
2021/07/06 01:38:41;;;;;;;4.53;1.70;;;;;;;18.43;100.00;99965.88;5192730;28;20411;-77
2021/07/06 01:41:11;;;;;;;7.38;1.85;;;;;;;18.42;100.00;99951.81;5194485;28;20477;-77
2021/07/06 01:43:41;;;;;;;3.83;1.60;;;;;;;18.44;100.00;99946.38;5192546;28;20112;-77
2021/07/06 01:46:11;;;;;;;3.53;1.42;;;;;;;18.55;100.00;99933.16;5194731;28;20055;-78
2021/07/06 01:48:42;;;;;;;4.70;1.38;;;;;;;18.58;100.00;99932.91;5191816;28;20522;-77
2021/07/06 01:51:12;;;;;;;4.18;1.38;;;;;;;18.74;100.00;99916.56;5187745;28;20092;-77
2021/07/06 01:53:42;;;;;;;5.65;1.20;;;;;;;18.81;100.00;99924.84;5189865;28;20391;-77
2021/07/06 01:56:12;;;;;;;4.32;1.38;;;;;;;18.84;100.00;99911.38;5192976;28;20056;-77
2021/07/06 01:58:43;;;;;;;5.97;1.40;;;;;;;18.86;100.00;99907.66;5193565;28;20029;-77
2021/07/06 02:01:13;;;;;;;4.18;1.30;;;;;;;18.91;100.00;99897.50;5188146;28;20029;-77
2021/07/06 02:03:49;;;;;;;12.57;2.08;;;;;;;18.76;100.00;99898.72;5191612;28;20100;-77
2021/07/06 02:06:20;;;;;;;3.70;1.45;;;;;;;18.71;100.00;99896.59;5190922;28;20432;-77
2021/07/06 02:08:50;;;;;;;4.55;1.10;;;;;;;18.71;100.00;99891.28;5194756;28;20120;-77
2021/07/06 02:11:21;;;;;;;5.95;1.15;;;;;;;18.71;100.00;99892.13;5190314;28;20029;-77
2021/07/06 02:13:51;;;;;;;7.18;1.30;;;;;;;18.77;100.00;99886.34;5194131;28;20406;-77
2021/07/06 02:16:22;;;;;;;5.07;1.33;;;;;;;18.70;100.00;99886.97;5190605;28;20022;-77
2021/07/06 02:18:53;;;;;;;6.25;1.45;;;;;;;18.69;100.00;99882.63;5194320;28;20021;-77
2021/07/06 02:21:23;;;;;;;6.07;1.30;;;;;;;18.53;100.00;99874.22;5185823;28;20137;-77
2021/07/06 02:23:53;;;;;;;4.07;1.50;;;;;;;18.59;100.00;99873.72;5189748;28;20491;-77
2021/07/06 02:26:24;;;;;;;4.90;1.15;;;;;;;18.57;100.00;99878.31;5189875;28;20026;-77
2021/07/06 02:28:54;;;;;;;4.03;1.30;;;;;;;18.56;100.00;99887.22;5194138;28;20434;-78
2021/07/06 02:31:24;;;;;;;8.85;1.27;;;;;;;18.61;100.00;99879.72;5190355;28;20026;-78
2021/07/06 02:33:55;;;;;;;10.25;1.30;;;;;;;18.55;100.00;99877.59;5189675;28;20511;-78
2021/07/06 02:36:25;;;;;;;4.15;1.33;;;;;;;18.63;100.00;99872.50;5190697;28;20029;-77
2021/07/06 02:38:55;;;;;;;3.50;1.20;;;;;;;18.55;100.00;99869.66;5191395;28;20056;-77
2021/07/06 02:41:25;;;;;;;7.07;1.40;;;;;;;18.63;100.00;99867.22;5194836;28;20067;-77
2021/07/06 02:43:56;;;;;;;5.35;1.30;;;;;;;18.65;100.00;99875.91;5194916;28;20021;-79
2021/07/06 02:46:26;;;;;;;2.47;1.10;;;;;;;18.66;100.00;99875.78;5199081;28;20053;-78
2021/07/06 02:48:56;;;;;;;5.60;1.27;;;;;;;18.67;100.00;99863.38;5194853;28;20273;-78
2021/07/06 02:51:27;;;;;;;5.20;1.40;;;;;;;18.62;100.00;99866.38;5194290;28;20075;-78
2021/07/06 02:53:57;;;;;;;4.53;1.42;;;;;;;18.48;100.00;99874.56;5194755;28;20272;-78
2021/07/06 02:56:27;;;;;;;4.45;1.15;;;;;;;18.49;100.00;99868.31;5197708;28;20550;-78
2021/07/06 02:58:58;;;;;;;6.40;1.30;;;;;;;18.44;100.00;99870.50;5192778;28;20037;-78
2021/07/06 03:01:29;;;;;;;5.63;1.38;;;;;;;18.54;100.00;99871.44;5193365;28;20094;-78
2021/07/06 03:03:59;;;;;;;2.95;1.15;;;;;;;18.43;100.00;99876.75;5194654;28;20558;-78
2021/07/06 03:06:30;;;;;;;5.35;1.10;;;;;;;18.39;100.00;99877.97;5195369;28;20036;-79
2021/07/06 03:09:00;;;;;;;4.10;1.30;;;;;;;18.34;100.00;99887.22;5196519;28;20402;-78
2021/07/06 03:11:31;;;;;;;5.93;1.40;;;;;;;18.35;100.00;99883.59;5197523;28;20025;-79
2021/07/06 03:14:02;;;;;;;4.35;1.30;;;;;;;18.49;100.00;99889.50;5194765;28;20053;-78
2021/07/06 03:16:32;;;;;;;6.40;1.73;;;;;;;18.30;100.00;99893.69;5192904;28;20380;-78
2021/07/06 03:19:02;;;;;;;10.57;1.50;;;;;;;18.26;100.00;99893.06;5194251;28;20026;-79
2021/07/06 03:21:32;;;;;;;7.10;1.40;;;;;;;18.19;100.00;99896.31;5190088;28;20072;-78
2021/07/06 03:24:03;;;;;;;7.75;1.67;;;;;;;18.17;100.00;99906.16;5193640;28;20052;-79
2021/07/06 03:26:33;;;;;;;6.97;1.40;;;;;;;18.10;100.00;99910.22;5195062;28;20364;-78
2021/07/06 03:29:04;;;;;;;5.53;1.75;;;;;;;17.93;100.00;99908.88;5195093;28;20036;-79
2021/07/06 03:31:34;;;;;;;5.20;1.47;;;;;;;18.01;100.00;99906.47;5193433;28;20030;-79
2021/07/06 03:34:04;;;;;;;10.05;1.63;;;;;;;18.02;100.00;99905.53;5194610;28;20288;-78
2021/07/06 03:36:35;;;;;;;8.23;1.50;;;;;;;18.12;100.00;99903.88;5196032;28;20076;-79
2021/07/06 03:39:05;;;;;;;7.05;1.58;;;;;;;18.13;100.00;99902.91;5193597;28;20033;-79
2021/07/06 03:41:35;;;;;;;4.72;1.48;;;;;;;18.13;100.00;99902.06;5194811;28;20024;-79
2021/07/06 03:44:05;;;;;;;5.65;1.65;;;;;;;18.14;100.00;99895.84;5194211;28;20060;-78
2021/07/06 03:46:36;;;;;;;6.90;1.50;;;;;;;18.21;100.00;99878.50;5195401;28;20057;-78
2021/07/06 03:49:06;;;;;;;4.13;1.27;;;;;;;18.13;100.00;99884.41;5195226;28;20018;-79
2021/07/06 03:51:36;;;;;;;6.32;1.58;;;;;;;18.14;100.00;99895.84;5193018;28;20034;-79
2021/07/06 03:54:07;;;;;;;7.25;1.50;;;;;;;18.16;100.00;99883.31;5191261;28;20055;-78
2021/07/06 03:56:37;;;;;;;8.60;1.50;;;;;;;18.17;100.00;99885.00;5198116;28;20140;-78
2021/07/06 03:59:07;;;;;;;6.82;1.50;;;;;;;18.16;100.00;99889.44;5191578;28;20029;-79
2021/07/06 04:01:37;;;;;;;4.27;1.23;;;;;;;18.11;100.00;99882.81;5194037;28;20106;-79
2021/07/06 04:04:08;;;;;;;7.95;1.50;;;;;;;18.15;100.00;99886.94;5193348;28;20367;-79
2021/07/06 04:06:39;;;;;;;5.70;1.60;;;;;;;18.21;100.00;99897.84;5194187;28;20118;-79
2021/07/06 04:09:09;;;;;;;8.80;1.33;;;;;;;18.22;100.00;99893.41;5196370;28;20540;-79
2021/07/06 04:11:40;;;;;;;5.18;1.40;;;;;;;18.22;100.00;99893.41;5194065;28;20025;-79
2021/07/06 04:14:10;;;;;;;8.35;1.75;;;;;;;18.25;100.00;99885.25;5195092;28;20099;-79
2021/07/06 04:16:41;;;;;;;5.38;1.30;;;;;;;18.33;100.00;99882.88;5201403;28;20471;-79
2021/07/06 04:19:11;;;;;;;8.65;1.52;;;;;;;18.45;100.00;99895.13;5202498;28;20033;-79
2021/07/06 04:21:41;;;;;;;6.25;1.67;;;;;;;18.56;100.00;99887.22;5194507;28;20029;-78
2021/07/06 04:24:12;;;;;;;5.50;1.50;;;;;;;18.70;100.00;99885.13;5196993;28;20040;-79
2021/07/06 04:26:44;;;;;;;3.42;1.30;;;;;;;18.88;100.00;99889.81;5199111;28;20125;-79
2021/07/06 04:29:14;;;;;;;5.65;1.30;;;;;;;18.82;100.00;99890.31;5199526;28;20025;-78
2021/07/06 04:31:44;;;;;;;4.30;1.10;;;;;;;18.84;100.00;99887.53;5190459;28;20088;-78
2021/07/06 04:34:15;;;;;;;5.88;1.20;;;;;;;18.84;100.00;99888.38;5191070;28;20025;-78
2021/07/06 04:36:45;;;;;;;9.35;1.40;;;;;;;18.68;100.00;99878.31;5195904;28;20030;-78
2021/07/06 04:39:16;;;;;;;5.50;1.30;;;;;;;18.64;100.00;99875.06;5197792;28;20152;-78
2021/07/06 04:41:47;;;;;;;5.82;1.20;;;;;;;18.57;100.00;99870.38;5194270;28;20516;-78
2021/07/06 04:44:17;;;;;;;4.93;1.30;;;;;;;18.69;100.00;99872.03;5200408;28;20025;-78
2021/07/06 04:46:47;;;;;;;4.97;1.40;;;;;;;18.65;100.00;99875.91;5195468;28;20041;-78
2021/07/06 04:49:17;;;;;;;6.10;1.17;;;;;;;20.96;98.91;99873.69;5196820;28;20097;-78
2021/07/06 04:51:48;;;;;;;2.65;0.80;;;;;;;21.15;96.61;99874.56;5201903;28;20032;-78
2021/07/06 04:54:23;;;;;;;2.05;0.70;;;;;;;21.49;93.70;99872.34;5191858;28;20033;-78
2021/07/06 04:56:54;;;;;;;3.92;1.00;;;;;;;22.55;88.36;99858.69;5194285;28;20025;-80
2021/07/06 04:59:24;;;;;;;3.45;1.08;;;;;;;22.24;89.30;99860.75;5197379;28;20028;-78
2021/07/06 05:01:54;;;;;;;5.63;1.00;;;;;;;23.53;85.25;99848.81;5196533;28;20033;-79
2021/07/06 05:04:25;;;;;;;3.50;0.88;;;;;;;23.34;84.75;99864.16;5195927;28;20271;-79
2021/07/06 05:06:55;;;;;;;3.05;0.70;;;;;;;23.96;82.94;99864.88;5194306;28;20083;-79
2021/07/06 05:09:26;;;;;;;4.80;0.70;;;;;;;24.20;80.46;99862.34;5190443;28;20514;-79
2021/07/06 05:11:56;;;;;;;4.50;0.80;;;;;;;24.05;82.29;99868.44;5196183;28;20108;-79
2021/07/06 05:14:27;;;;;;;2.20;0.87;;;;;;;24.01;83.04;99878.59;5191319;28;20029;-79
2021/07/06 05:16:58;;;;;;;3.00;0.57;;;;;;;26.24;75.75;99877.59;5194888;28;20333;-79
2021/07/06 05:19:28;;;;;;;2.50;0.70;;;;;;;25.95;75.75;99874.63;5197574;28;20120;-79
2021/07/06 05:21:58;;;;;;;4.78;0.70;;;;;;;27.33;70.64;99873.00;5193998;28;20025;-80
2021/07/06 05:24:28;;;;;;;2.40;0.63;;;;;;;27.23;70.52;99881.28;5200199;28;20471;-79
2021/07/06 05:26:59;;;;;;;2.30;0.60;;;;;;;27.60;70.33;99888.63;5195575;28;20579;-79
2021/07/06 05:29:29;;;;;;;3.30;0.70;;;;;;;28.12;68.49;99890.38;5200148;28;20104;-79
2021/07/06 05:32:00;;;;;;;3.53;0.80;;;;;;;28.47;68.12;99889.69;5191349;28;20124;-79
2021/07/06 05:34:30;;;;;;;4.15;0.60;;;;;;;29.21;67.06;99884.94;5199089;28;20021;-79
2021/07/06 05:37:01;;;;;;;2.42;0.70;;;;;;;28.68;67.06;99879.03;5192603;28;20036;-80
2021/07/06 05:39:32;;;;;;;2.25;0.70;;;;;;;27.23;72.16;99886.66;5199526;28;20029;-79
2021/07/06 05:42:04;;;;;;;1.90;0.70;;;;;;;27.09;71.08;99889.25;5196916;28;20116;-79
2021/07/06 05:44:35;;;;;;;1.23;0.50;;;;;;;27.09;71.88;99882.00;5195920;28;20515;-78
2021/07/06 05:47:07;;;;;;;2.28;0.60;;;;;;;27.33;71.02;99881.91;5197174;28;20025;-78
2021/07/06 05:49:37;;;;;;;1.15;0.60;;;;;;;27.21;71.20;99874.41;5194143;28;20091;-79
2021/07/06 05:52:08;;;;;;;3.72;0.90;;;;;;;26.72;72.64;99869.47;5194891;28;20013;-79
2021/07/06 05:54:38;;;;;;;2.33;0.70;;;;;;;26.11;74.90;99856.69;5193756;28;20034;-78
2021/07/06 05:57:08;;;;;;;2.53;0.80;;;;;;;25.80;77.25;99862.91;5197181;28;20280;-78
2021/07/06 05:59:38;;;;;;;3.13;0.80;;;;;;;25.22;78.78;99859.50;5195575;28;20045;-79
2021/07/06 06:02:09;;;;;;;2.25;0.80;;;;;;;25.00;78.41;99857.41;5192160;28;20091;-78
2021/07/06 06:04:39;;;;;;;5.90;0.80;;;;;;;24.72;80.00;99863.16;5190822;28;20026;-78
2021/07/06 06:07:09;;;;;;;3.38;0.90;;;;;;;25.04;79.67;99856.94;5194457;28;20272;-78
2021/07/06 06:09:40;;;;;;;2.47;0.77;;;;;;;24.75;79.99;99858.31;5196953;28;20022;-79
2021/07/06 06:12:10;;;;;;;3.55;0.73;;;;;;;25.04;80.61;99856.94;5192385;28;20346;-78
2021/07/06 06:14:41;;;;;;;2.53;0.85;;;;;;;24.94;79.73;99850.06;5194544;28;20045;-78
2021/07/06 06:17:11;;;;;;;1.42;0.70;;;;;;;25.18;78.50;99852.78;5197865;28;20457;-78
2021/07/06 06:19:41;;;;;;;5.22;1.00;;;;;;;25.42;79.20;99866.22;5195656;28;20395;-78
2021/07/06 06:22:12;;;;;;;2.75;0.75;;;;;;;25.23;80.09;99878.06;5189867;28;20029;-78
2021/07/06 06:24:43;;;;;;;3.42;0.85;;;;;;;25.28;79.49;99864.22;5192767;28;20033;-78
2021/07/06 06:27:13;;;;;;;4.63;0.63;;;;;;;25.86;78.76;99863.06;5198054;28;20414;-78
2021/07/06 06:29:44;;;;;;;2.83;0.80;;;;;;;25.78;77.07;99862.22;5194861;28;20268;-78
2021/07/06 06:32:14;;;;;;;2.90;0.80;;;;;;;25.85;77.07;99857.91;5191120;28;20304;-78
2021/07/06 06:34:45;;;;;;;4.22;0.70;;;;;;;25.87;76.84;99858.56;5192668;28;20101;-78
2021/07/06 06:37:15;;;;;;;4.20;0.80;;;;;;;26.20;77.14;99858.34;5190121;28;20021;-79
2021/07/06 06:39:45;;;;;;;3.35;0.80;;;;;;;26.22;76.23;99866.22;5193309;28;20052;-78
2021/07/06 06:42:16;;;;;;;2.80;0.70;;;;;;;25.66;79.06;99877.78;5192717;28;20018;-78
2021/07/06 06:44:46;;;;;;;3.38;0.95;;;;;;;26.85;75.47;99867.88;5195028;28;20036;-78
2021/07/06 06:47:18;;;;;;;1.13;0.63;;;;;;;27.52;73.75;99859.97;5192074;28;20400;-78
2021/07/06 06:49:48;;;;;;;2.08;0.80;;;;;;;26.85;73.72;99858.00;5195012;28;20021;-78
2021/07/06 06:52:18;;;;;;;2.58;0.85;;;;;;;26.82;73.56;99855.66;5190043;28;20167;-78
2021/07/06 06:54:49;;;;;;;3.38;0.70;;;;;;;26.57;74.26;99858.63;5191861;28;20087;-78
2021/07/06 06:57:21;;;;;;;1.67;0.80;;;;;;;26.88;73.30;99854.97;5192934;28;20026;-78
2021/07/06 06:59:52;;;;;;;3.03;0.85;;;;;;;27.32;72.67;99855.25;5188186;28;20033;-78
2021/07/06 07:02:28;;;;;;;2.20;0.60;;;;;;;27.43;73.35;99852.16;5191792;28;20025;-79
2021/07/06 07:04:58;;;;;;;3.08;0.90;;;;;;;27.21;72.96;99861.84;5188990;28;20085;-78
2021/07/06 07:07:30;;;;;;;5.93;0.70;;;;;;;27.73;71.90;99849.41;5191943;28;20169;-78
2021/07/06 07:10:00;;;;;;;1.83;0.65;;;;;;;28.08;70.82;99850.59;5189041;28;20018;-78
2021/07/06 07:12:31;;;;;;;3.08;0.85;;;;;;;27.50;71.15;99853.94;5191390;28;20032;-79
2021/07/06 07:15:04;;;;;;;2.65;0.80;;;;;;;28.02;70.55;99852.19;5186219;28;20188;-78
2021/07/06 07:17:34;;;;;;;2.63;0.50;;;;;;;28.28;69.71;99836.44;5189745;28;20103;-78
2021/07/06 07:20:07;;;;;;;1.43;0.63;;;;;;;29.09;69.58;99831.78;5188471;28;20049;-78
2021/07/06 07:22:38;;;;;;;1.77;0.70;;;;;;;28.92;68.90;99844.59;5189395;28;20355;-79
2021/07/06 07:25:09;;;;;;;1.08;0.73;;;;;;;29.50;65.71;99846.31;5191839;28;20056;-78
2021/07/06 07:27:40;;;;;;;1.55;0.70;;;;;;;28.97;66.49;99846.72;5188725;28;20040;-78
2021/07/06 07:30:12;;;;;;;3.80;0.80;;;;;;;28.94;67.53;99844.44;5185828;28;20064;-79
2021/07/06 07:32:44;;;;;;;2.00;0.90;;;;;;;29.17;66.23;99828.94;5190441;28;20025;-78
2021/07/06 07:35:16;;;;;;;2.50;0.90;;;;;;;29.43;65.46;99834.63;5186838;28;20040;-78
2021/07/06 07:37:48;;;;;;;1.80;0.80;;;;;;;29.39;66.77;99830.66;5183296;28;20021;-79
2021/07/06 07:40:19;;;;;;;2.83;0.88;;;;;;;29.27;67.08;99833.00;5187451;28;20650;-79
2021/07/06 07:42:49;;;;;;;5.78;0.90;;;;;;;29.39;67.57;99833.34;5183840;28;20034;-78
2021/07/06 07:45:19;;;;;;;4.93;0.80;;;;;;;29.06;67.19;99826.78;5198690;28;20030;-78
2021/07/06 07:47:50;;;;;;;2.80;0.70;;;;;;;29.91;65.00;99831.16;5188853;28;20569;-78
2021/07/06 07:50:20;;;;;;;2.85;0.65;;;;;;;30.01;63.82;99829.78;5197705;28;20088;-78
2021/07/06 07:52:50;;;;;;;3.40;0.83;;;;;;;30.51;63.31;99821.41;5196974;28;20033;-78
2021/07/06 07:55:21;;;;;;;4.37;0.80;;;;;;;30.33;62.67;99818.41;5198426;28;20280;-79
2021/07/06 07:57:51;;;;;;;2.17;0.63;;;;;;;30.53;63.07;99807.69;5202246;28;20347;-78
2021/07/06 08:00:21;;;;;;;2.40;0.70;;;;;;;29.84;63.07;99808.69;5196258;28;20022;-78
2021/07/06 08:02:52;;;;;;;2.30;0.63;;;;;;;31.17;61.24;99801.78;5200227;28;20032;-79
2021/07/06 08:05:22;;;;;;;1.70;0.60;;;;;;;30.98;61.95;99791.72;5200618;28;20278;-78
2021/07/06 08:07:52;;;;;;;2.67;1.00;;;;;;;31.54;61.76;99793.13;5195557;28;20031;-78
2021/07/06 08:10:23;;;;;;;2.10;0.80;;;;;;;30.73;60.98;99792.47;5198317;28;20025;-79
2021/07/06 08:12:53;;;;;;;1.73;0.70;;;;;;;31.86;61.69;99790.41;5197670;28;20021;-78
2021/07/06 08:15:23;;;;;;;3.65;0.90;;;;;;;32.40;60.34;99788.25;5203880;28;20419;-77
2021/07/06 08:17:54;;;;;;;7.47;0.90;;;;;;;33.34;58.55;99793.69;5194954;28;20428;-78
2021/07/06 08:20:24;;;;;;;2.83;0.60;;;;;;;32.48;59.68;99793.44;5200171;28;20499;-79
2021/07/06 08:22:57;;;;;;;2.10;0.80;;;;;;;32.47;59.48;99789.09;5199699;28;20026;-79
2021/07/06 08:25:27;;;;;;;3.25;0.95;;;;;;;33.12;59.07;99799.66;5198591;28;20288;-79
2021/07/06 08:27:57;;;;;;;2.37;0.80;;;;;;;33.01;57.79;99794.91;5196344;28;20040;-79
2021/07/06 08:30:28;;;;;;;2.35;0.68;;;;;;;31.80;59.20;99798.53;5200087;28;20297;-78
2021/07/06 08:32:58;;;;;;;3.38;0.77;;;;;;;31.90;59.97;99799.78;5197502;28;20025;-79
2021/07/06 08:35:28;;;;;;;4.50;0.73;;;;;;;31.68;59.74;99803.75;5195616;28;20381;-79
2021/07/06 08:37:58;;;;;;;2.10;0.60;;;;;;;32.51;58.13;99798.44;5203570;28;20498;-77
2021/07/06 08:40:29;;;;;;;2.63;0.70;;;;;;;33.03;58.28;99798.22;5201192;28;20268;-80
2021/07/06 08:43:01;;;;;;;3.05;0.80;;;;;;;32.49;56.80;99799.69;5204864;28;20275;-78
2021/07/06 08:45:32;;;;;;;3.30;0.70;;;;;;;32.96;58.02;99800.97;5194563;28;20495;-78
2021/07/06 08:48:03;;;;;;;4.43;0.85;;;;;;;32.97;56.32;99796.41;5199485;28;20087;-81
2021/07/06 08:50:33;;;;;;;3.10;0.85;;;;;;;32.87;59.50;99809.56;5202260;28;20113;-80
2021/07/06 08:53:06;;;;;;;3.03;0.80;;;;;;;33.99;57.45;99808.63;5195266;28;20100;-80
2021/07/06 08:55:37;;;;;;;2.25;0.60;;;;;;;33.76;56.11;99816.53;5200080;28;20381;-79
2021/07/06 08:58:07;;;;;;;3.85;0.70;;;;;;;34.15;56.61;99817.03;5201996;28;20052;-78
2021/07/06 09:00:38;;;;;;;2.05;0.82;;;;;;;34.82;54.91;99813.41;5197729;28;20026;-80
2021/07/06 09:03:10;;;;;;;4.10;0.60;;;;;;;34.17;52.10;99824.94;5195849;28;20017;-79
2021/07/06 09:05:40;;;;;;;1.42;0.50;;;;;;;34.93;56.21;99831.66;5199146;28;19929;-80
2021/07/06 09:08:16;;;;;;;4.47;0.70;;;;;;;33.25;55.22;99824.81;5199488;28;20021;-80
2021/07/06 09:10:46;;;;;;;2.35;0.70;;;;;;;33.71;54.31;99814.53;5200323;28;20025;-79
2021/07/06 09:13:30;;;;;;;4.03;0.60;;;;;;;34.98;55.19;99813.59;5196858;28;20474;-79
2021/07/06 09:16:03;;;;;;;1.13;0.45;;;;;;;32.62;55.82;99810.47;5195144;28;20631;-78
2021/07/06 09:18:34;;;;;;;2.50;0.80;;;;;;;33.81;56.97;99814.03;5197674;28;20025;-78
2021/07/06 09:21:07;;;;;;;1.70;0.60;;;;;;;33.56;54.38;99815.84;5194574;28;20181;-78
2021/07/06 09:23:41;;;;;;;3.15;0.60;;;;;;;32.92;57.55;99807.03;5194262;28;20022;-76
2021/07/06 09:26:24;;;;;;;3.97;0.77;;;;;;;31.97;58.40;99810.59;5197393;28;20084;-76
2021/07/06 09:28:56;;;;;;;1.70;0.60;;;;;;;30.57;60.98;99809.81;5192777;28;20517;-76
2021/07/06 09:31:31;;;;;;;2.22;0.63;;;;;;;30.08;62.47;99817.19;5190952;28;20101;-76
2021/07/06 09:34:09;;;;;;;2.17;0.70;;;;;;;30.25;63.24;99801.56;5195126;28;20021;-76
2021/07/06 09:36:48;;;;;;;3.30;0.63;;;;;;;30.11;64.14;99813.28;5195149;28;20039;-76
2021/07/06 09:39:22;;;;;;;1.58;0.60;;;;;;;30.14;63.63;99802.94;5198877;28;20028;-75
2021/07/06 09:42:02;;;;;;;2.08;0.80;;;;;;;30.33;62.78;99812.16;5197218;28;20053;-77
2021/07/06 09:44:36;;;;;;;1.42;0.65;;;;;;;30.34;64.31;99809.28;5191668;28;20484;-77
2021/07/06 09:47:08;;;;;;;3.60;0.80;;;;;;;29.68;67.01;99811.66;5190448;28;20037;-76
2021/07/06 09:49:52;;;;;;;2.40;0.60;;;;;;;30.04;64.59;99820.47;5194874;28;20471;-77
2021/07/06 09:52:23;;;;;;;6.07;0.98;;;;;;;29.26;65.46;99820.56;5188332;28;20043;-74
2021/07/06 09:54:57;;;;;;;2.10;0.70;;;;;;;28.92;65.34;99819.56;5193167;28;20017;-77
2021/07/06 09:57:32;;;;;;;1.95;0.70;;;;;;;28.64;65.60;99821.25;5187153;28;20523;-76
2021/07/06 10:00:08;;;;;;;2.95;0.70;;;;;;;28.24;67.75;99819.00;5191240;28;20030;-76
2021/07/06 10:02:40;;;;;;;1.20;0.60;;;;;;;28.30;68.19;99814.75;5190242;28;20026;-78
2021/07/06 10:05:18;;;;;;;3.40;0.70;;;;;;;28.37;68.62;99819.25;5197189;28;20517;-77
2021/07/06 10:07:48;;;;;;;2.53;0.82;;;;;;;28.31;68.88;99817.28;5199176;28;20028;-79
2021/07/06 10:10:19;;;;;;;1.52;0.60;;;;;;;28.45;66.42;99815.63;5196228;28;20030;-77
2021/07/06 10:12:50;;;;;;;1.98;0.70;;;;;;;28.52;67.30;99817.38;5197837;28;20108;-76
2021/07/06 10:15:22;;;;;;;2.25;0.80;;;;;;;28.61;64.55;99807.34;5195672;28;20101;-78
2021/07/06 10:17:53;;;;;;;4.13;0.77;;;;;;;29.41;62.76;99804.34;5199697;28;20025;-79
2021/07/06 10:20:26;;;;;;;1.35;0.50;;;;;;;29.72;61.18;99805.69;5192017;28;20029;-77
2021/07/06 10:23:01;;;;;;;2.25;0.60;;;;;;;29.11;63.28;99798.25;5193547;28;20022;-79
2021/07/06 10:25:35;;;;;;;3.40;0.80;;;;;;;29.52;64.26;99796.59;5192863;28;20034;-78
2021/07/06 10:28:14;;;;;;;4.10;0.70;;;;;;;29.35;63.47;99791.63;5191969;28;20459;-77
2021/07/06 10:30:46;;;;;;;1.65;0.70;;;;;;;29.56;64.60;99802.47;5192588;28;20040;-77
2021/07/06 10:33:28;;;;;;;3.53;0.70;;;;;;;29.72;62.93;99799.47;5187344;28;20025;-79
2021/07/06 10:36:00;;;;;;;3.55;0.70;;;;;;;29.49;62.58;99798.84;5191068;28;20029;-79
2021/07/06 10:38:31;;;;;;;1.80;0.60;;;;;;;29.33;64.06;99801.78;5191628;28;20029;-78
2021/07/06 10:41:03;;;;;;;1.88;0.73;;;;;;;29.00;66.00;99805.97;5195399;28;20030;-77
2021/07/06 10:43:42;;;;;;;2.05;0.65;;;;;;;28.53;66.13;99813.66;5195053;28;20026;-78
2021/07/06 10:46:16;;;;;;;2.72;1.02;;;;;;;28.67;64.71;99817.34;5198046;28;20088;-79
2021/07/06 10:48:56;;;;;;;4.75;1.50;;;;;;;28.57;67.10;99817.66;5198377;28;20151;-78
2021/07/06 10:51:49;;;;;;;2.15;1.20;;;;;;;28.20;70.29;99806.97;5187065;28;20214;-78
2021/07/06 10:54:20;;;;;;;6.78;1.50;;;;;;;27.85;69.79;99813.03;5193409;28;20045;-77
2021/07/06 10:56:59;;;;;;;3.75;1.33;;;;;;;27.61;70.19;99821.28;5199924;28;20021;-75
2021/07/06 10:59:36;;;;;;;2.85;1.20;;;;;;;27.41;71.04;99841.56;5192546;28;20032;-79
2021/07/06 11:02:12;;;;;;;4.55;1.48;;;;;;;27.22;71.89;99844.72;5191577;28;20469;-78
2021/07/06 11:04:45;;;;;;;4.97;1.30;;;;;;;27.17;71.31;99841.75;5196674;28;20025;-76
2021/07/06 11:07:30;;;;;;;1.95;0.90;;;;;;;26.56;72.18;99853.44;5194570;28;20550;-78
2021/07/06 11:10:03;;;;;;;4.88;0.95;;;;;;;26.38;73.76;99861.66;5190991;28;20448;-75
2021/07/06 11:12:41;;;;;;;3.28;1.38;;;;;;;26.05;76.75;99880.66;5196874;28;20108;-79
2021/07/06 11:15:12;;;;;;;8.25;1.35;;;;;;;25.72;80.56;99898.56;5195890;28;20088;-79
2021/07/06 11:17:57;;;;;;;8.07;1.60;;;;;;;25.43;86.06;99921.41;5168150;28;20119;-78
2021/07/06 11:20:39;;;;;;;3.72;1.30;;;;;;;25.12;89.27;99955.09;5139389;28;20132;-78
2021/07/06 11:23:17;;;;;;;7.30;1.83;;;;;;;23.90;95.91;99961.59;5140629;28;20062;-78
2021/07/06 11:25:48;;;;;;;12.05;2.20;;;;;;;23.57;100.00;99978.25;5141230;28;20046;-78
2021/07/06 11:28:27;;;;;;;7.93;2.03;;;;;;;23.01;100.00;99984.75;5152676;28;20193;-78
2021/07/06 11:31:00;;;;;;;12.85;2.40;;;;;;;22.80;100.00;99994.75;5151717;28;20037;-77
2021/07/06 11:33:31;;;;;;;9.02;1.95;;;;;;;22.41;100.00;100001.19;5150071;28;20485;-78
2021/07/06 11:36:05;;;;;;;7.88;1.80;;;;;;;22.39;100.00;100010.31;5153164;28;20030;-77
2021/07/06 11:38:44;;;;;;;10.55;1.90;;;;;;;22.16;100.00;100012.41;5155421;28;20206;-78
2021/07/06 11:41:16;;;;;;;11.98;2.22;;;;;;;21.94;100.00;100020.66;5154496;28;20034;-77
2021/07/06 11:43:47;;;;;;;8.55;1.90;;;;;;;22.03;100.00;100026.97;5151995;28;20033;-78
2021/07/06 11:46:19;;;;;;;6.28;1.90;;;;;;;22.24;100.00;100020.53;5151239;28;20019;-78
2021/07/06 11:48:54;;;;;;;4.60;1.80;;;;;;;21.99;100.00;100031.75;5158666;28;20030;-78
2021/07/06 11:51:26;;;;;;;6.40;1.60;;;;;;;22.06;100.00;100026.72;5144779;28;20030;-78